createdAt,value
2023-02-14T00:01:14.063Z,31.25
2023-02-14T00:04:01.611Z,34.08
2023-02-14T00:06:49.213Z,29.37
2023-02-14T00:09:36.835Z,37.85
2023-02-14T00:12:24.294Z,34.48
2023-02-14T00:15:25.107Z,35.38
2023-02-14T00:18:12.621Z,34.10
2023-02-14T00:21:02.530Z,40.12
2023-02-14T00:23:49.929Z,38.65
2023-02-14T00:26:40.415Z,41.00
2023-02-14T00:29:30.508Z,40.40
2023-02-14T00:32:17.698Z,33.25
2023-02-14T00:35:05.408Z,32.05
2023-02-14T00:37:52.882Z,34.18
2023-02-14T00:40:40.328Z,38.48
2023-02-14T00:43:27.790Z,41.98
2023-02-14T00:46:15.865Z,43.15
2023-02-14T00:49:03.253Z,41.63
2023-02-14T00:51:50.770Z,43.98
2023-02-14T00:54:38.489Z,42.17
2023-02-14T00:57:25.702Z,40.00
2023-02-14T01:00:14.083Z,38.90
2023-02-14T01:03:01.264Z,46.68
2023-02-14T01:05:49.712Z,53.17
2023-02-14T01:08:36.835Z,47.55
2023-02-14T01:11:25.357Z,51.88
2023-02-14T01:14:12.480Z,54.10
2023-02-14T01:16:59.747Z,49.58
2023-02-14T01:19:47.001Z,61.33
2023-02-14T01:22:37.213Z,58.02
2023-02-14T01:25:24.679Z,57.20
2023-02-14T01:28:12.231Z,50.60
2023-02-14T01:31:01.203Z,61.08
2023-02-14T01:33:49.738Z,63.30
2023-02-14T01:36:39.934Z,57.38
2023-02-14T01:39:28.007Z,49.00
2023-02-14T01:42:15.588Z,57.08
2023-02-14T01:45:11.884Z,59.38
2023-02-14T01:47:59.325Z,55.98
2023-02-14T01:50:49.051Z,55.30
2023-02-14T01:53:36.684Z,59.10
2023-02-14T01:56:26.903Z,58.45
2023-02-14T01:59:17.188Z,58.95
2023-02-14T02:02:05.803Z,65.20
2023-02-14T02:04:56.211Z,66.72
2023-02-14T02:07:44.165Z,63.48
2023-02-14T02:10:31.674Z,53.87
2023-02-14T02:13:21.604Z,62.38
2023-02-14T02:16:24.574Z,63.35
2023-02-14T02:19:26.742Z,65.32
2023-02-14T02:22:22.972Z,75.78
2023-02-14T02:25:35.018Z,67.85
2023-02-14T02:28:41.873Z,62.53
2023-02-14T02:35:12.773Z,63.87
2023-02-14T02:38:12.270Z,64.72
2023-02-14T02:41:05.644Z,64.55
2023-02-14T02:44:20.313Z,64.20
2023-02-14T02:47:13.872Z,68.50
2023-02-14T02:50:34.115Z,73.70
2023-02-14T02:53:27.556Z,63.85
2023-02-14T02:56:39.202Z,68.02
2023-02-14T02:59:29.616Z,76.02
2023-02-14T03:02:39.694Z,64.62
2023-02-14T03:05:29.248Z,76.35
2023-02-14T03:08:16.751Z,75.30
2023-02-14T03:11:05.541Z,70.30
2023-02-14T03:14:10.616Z,73.30
2023-02-14T03:17:12.641Z,77.55
2023-02-14T03:20:30.528Z,75.92
2023-02-14T03:26:21.228Z,71.02
2023-02-14T03:29:26.639Z,67.55
2023-02-14T03:32:20.288Z,81.55
2023-02-14T03:35:16.976Z,85.83
2023-02-14T03:38:19.355Z,71.62
2023-02-14T03:41:15.855Z,67.92
2023-02-14T03:44:06.166Z,78.62
2023-02-14T03:46:57.019Z,70.60
2023-02-14T03:49:47.533Z,74.00
2023-02-14T03:52:36.886Z,64.80
2023-02-14T03:55:30.141Z,77.47
2023-02-14T03:58:26.526Z,70.95
2023-02-14T04:01:25.943Z,77.72
2023-02-14T04:04:16.034Z,72.03
2023-02-14T04:07:11.754Z,71.90
2023-02-14T04:09:59.115Z,74.40
2023-02-14T04:12:46.852Z,77.78
2023-02-14T04:15:34.171Z,71.12
2023-02-14T04:18:39.452Z,68.33
2023-02-14T04:21:26.680Z,74.60
2023-02-14T04:24:14.256Z,84.42
2023-02-14T04:27:11.054Z,83.60
2023-02-14T04:29:58.812Z,75.52
2023-02-14T04:32:46.288Z,77.78
2023-02-14T04:35:33.837Z,76.72
2023-02-14T04:38:21.379Z,71.60
2023-02-14T04:41:08.697Z,71.05
2023-02-14T04:43:56.072Z,75.32
2023-02-14T04:46:43.571Z,71.77
2023-02-14T04:49:31.117Z,70.42
2023-02-14T04:52:18.569Z,75.85
2023-02-14T04:55:06.496Z,77.55
2023-02-14T04:57:53.669Z,67.45
2023-02-14T05:00:41.282Z,71.70
2023-02-14T05:03:28.427Z,76.15
2023-02-14T05:06:15.816Z,67.58
2023-02-14T05:09:04.286Z,70.28
2023-02-14T05:11:51.388Z,76.60
2023-02-14T05:14:38.919Z,65.05
2023-02-14T05:17:26.254Z,55.85
2023-02-14T05:20:13.802Z,66.25
2023-02-14T05:23:02.539Z,59.03
2023-02-14T05:25:50.748Z,73.28
2023-02-14T05:28:39.919Z,69.55
2023-02-14T05:31:27.348Z,65.10
2023-02-14T05:34:14.375Z,64.92
2023-02-14T05:37:03.023Z,68.80
2023-02-14T05:39:50.260Z,60.05
2023-02-14T05:42:37.916Z,55.95
2023-02-14T05:45:25.355Z,55.03
2023-02-14T05:48:13.320Z,48.83
2023-02-14T05:51:06.798Z,43.68
2023-02-14T05:53:54.077Z,46.75
2023-02-14T05:56:41.297Z,56.05
2023-02-14T05:59:28.526Z,52.67
2023-02-14T06:02:16.065Z,58.05
2023-02-14T06:05:03.750Z,63.78
2023-02-14T06:07:51.245Z,60.30
2023-02-14T06:10:38.437Z,66.25
2023-02-14T06:13:26.316Z,78.37
2023-02-14T06:16:14.029Z,64.27
2023-02-14T06:19:01.313Z,70.17
2023-02-14T06:21:49.076Z,58.40
2023-02-14T06:24:37.019Z,65.08
2023-02-14T06:27:24.362Z,89.37
2023-02-14T06:30:15.619Z,63.45
2023-02-14T06:33:02.697Z,63.40
2023-02-14T06:35:50.117Z,90.05
2023-02-14T06:38:37.403Z,67.85
2023-02-14T06:41:24.956Z,65.62
2023-02-14T06:44:12.701Z,71.75
2023-02-14T06:47:00.372Z,65.78
2023-02-14T06:49:47.830Z,62.80
2023-02-14T06:52:35.401Z,69.80
2023-02-14T06:55:22.934Z,85.07
2023-02-14T06:58:10.633Z,75.87
2023-02-14T07:00:59.896Z,162.03
2023-02-14T07:03:47.350Z,105.03
2023-02-14T07:06:34.798Z,66.25
2023-02-14T07:09:22.468Z,127.60
2023-02-14T07:12:09.859Z,81.37
2023-02-14T07:14:57.103Z,64.25
2023-02-14T07:17:44.717Z,76.33
2023-02-14T07:20:32.037Z,99.13
2023-02-14T07:23:19.482Z,68.70
2023-02-14T07:26:06.864Z,73.25
2023-02-14T09:42:57.365Z,60.15
2023-02-14T09:45:47.565Z,56.28
2023-02-14T09:48:41.673Z,52.10
2023-02-14T09:51:32.324Z,55.03
2023-02-14T09:54:39.344Z,55.28
2023-02-14T09:57:35.906Z,55.25
2023-02-14T10:00:32.125Z,59.38
2023-02-14T10:03:40.922Z,52.80
2023-02-14T10:06:46.219Z,49.13
2023-02-14T10:09:54.822Z,49.18
2023-02-14T10:12:48.632Z,47.80
2023-02-14T10:15:42.164Z,46.15
2023-02-14T10:18:32.760Z,42.90
2023-02-14T10:21:31.654Z,48.08
2023-02-14T10:24:24.954Z,47.70
2023-02-14T10:27:33.227Z,52.38
2023-02-14T10:30:22.969Z,44.77
2023-02-14T10:33:13.076Z,50.17
2023-02-14T10:36:03.579Z,50.20
2023-02-14T10:39:09.581Z,50.15
2023-02-14T10:42:02.855Z,54.88
2023-02-14T10:45:09.398Z,53.08
2023-02-14T10:48:21.329Z,58.13
2023-02-14T10:51:34.372Z,49.48
2023-02-14T10:54:28.203Z,53.75
2023-02-14T10:57:18.592Z,47.17
2023-02-14T11:00:25.933Z,51.75
2023-02-14T11:03:14.988Z,47.27
2023-02-14T11:06:02.809Z,52.30
2023-02-14T11:08:49.946Z,49.20
2023-02-14T11:11:58.752Z,46.85
2023-02-14T11:14:46.444Z,46.08
2023-02-14T11:17:35.958Z,47.17
2023-02-14T11:20:27.777Z,47.75
2023-02-14T11:23:24.745Z,43.68
2023-02-14T11:29:03.078Z,44.20
2023-02-14T11:31:51.699Z,41.02
2023-02-14T11:34:45.000Z,42.15
2023-02-14T11:37:35.203Z,47.27
2023-02-14T11:40:28.450Z,47.15
2023-02-14T11:43:21.513Z,43.55
2023-02-14T11:47:02.179Z,45.85
2023-02-14T11:49:57.960Z,41.28
2023-02-14T11:52:48.380Z,44.55
2023-02-14T11:55:35.828Z,44.93
2023-02-14T11:58:29.225Z,47.00
2023-02-14T12:01:38.631Z,43.42
2023-02-14T12:04:38.131Z,42.88
2023-02-14T12:07:30.612Z,48.20
2023-02-14T12:10:21.053Z,41.50
2023-02-14T12:13:14.512Z,45.28
2023-02-14T12:16:03.440Z,42.17
2023-02-14T12:18:53.890Z,43.92
2023-02-14T12:21:59.502Z,43.42
2023-02-14T12:25:01.664Z,42.98
2023-02-14T12:28:01.390Z,44.23
2023-02-14T12:30:50.937Z,43.95
2023-02-14T12:33:39.673Z,41.18
2023-02-14T12:36:42.704Z,47.08
2023-02-14T12:39:57.380Z,42.20
2023-02-14T12:43:25.027Z,47.78
2023-02-14T12:46:31.800Z,48.20
2023-02-14T12:49:34.048Z,49.77
2023-02-14T12:52:42.551Z,54.73
2023-02-14T12:55:39.126Z,53.45
2023-02-14T12:58:29.707Z,52.67
2023-02-14T13:01:39.461Z,58.45
2023-02-14T13:04:32.757Z,56.42
2023-02-14T13:07:28.764Z,63.90
2023-02-14T13:10:41.652Z,61.13
2023-02-14T13:13:47.351Z,53.83
2023-02-14T13:16:50.115Z,57.62
2023-02-14T13:19:46.230Z,57.60
2023-02-14T13:22:35.216Z,55.85
2023-02-14T13:25:27.268Z,58.20
2023-02-14T13:28:16.081Z,55.73
2023-02-14T13:31:03.842Z,60.75
2023-02-14T13:34:07.021Z,56.65
2023-02-14T13:36:56.489Z,59.48
2023-02-14T13:39:49.744Z,52.17
2023-02-14T13:42:52.553Z,53.23
2023-02-14T13:45:54.712Z,58.65
2023-02-14T13:48:42.993Z,58.92
2023-02-14T13:51:45.627Z,54.85
2023-02-14T13:54:35.800Z,57.73
2023-02-14T13:57:36.764Z,49.70
2023-02-14T14:00:27.376Z,56.92
2023-02-14T14:03:17.453Z,51.80
2023-02-14T14:06:07.278Z,50.50
2023-02-14T14:08:57.125Z,48.60
2023-02-14T14:11:51.075Z,48.85
2023-02-14T14:14:39.828Z,54.42
2023-02-14T14:17:27.477Z,53.30
2023-02-14T14:20:23.778Z,56.65
2023-02-14T14:23:32.586Z,53.52
2023-02-14T14:26:43.827Z,49.50
2023-02-14T14:29:40.887Z,55.40
2023-02-14T14:35:22.850Z,51.20
2023-02-14T14:38:13.101Z,51.77
2023-02-14T14:41:02.664Z,54.05
2023-02-14T14:43:50.500Z,53.78
2023-02-14T14:46:38.555Z,51.18
2023-02-14T14:49:26.306Z,54.33
2023-02-14T14:52:25.481Z,49.25
2023-02-14T14:55:18.929Z,50.50
2023-02-14T14:58:09.561Z,48.42
2023-02-14T15:00:57.085Z,50.70
2023-02-14T15:03:45.395Z,50.83
2023-02-14T15:06:32.801Z,50.92
2023-02-14T15:09:33.819Z,56.83
2023-02-14T15:12:41.714Z,55.63
2023-02-14T15:15:29.258Z,54.75
2023-02-14T15:18:17.239Z,50.23
2023-02-14T15:21:06.737Z,59.80
2023-02-14T15:23:54.767Z,56.50
2023-02-14T15:26:44.504Z,55.10
2023-02-14T15:29:34.020Z,60.35
2023-02-14T15:32:21.631Z,61.08
2023-02-14T15:35:10.764Z,55.58
2023-02-14T15:38:01.920Z,54.25
2023-02-14T15:40:50.914Z,59.70
2023-02-14T15:43:39.289Z,57.03
2023-02-14T15:46:29.757Z,58.80
2023-02-14T15:49:20.699Z,63.50
2023-02-14T15:52:08.310Z,68.52
2023-02-14T15:54:55.924Z,65.10
2023-02-14T15:57:47.444Z,67.78
2023-02-14T16:00:36.675Z,65.22
2023-02-14T16:03:36.997Z,69.32
2023-02-14T16:06:39.751Z,68.35
2023-02-14T16:09:29.524Z,63.48
2023-02-14T16:12:28.941Z,66.05
2023-02-14T16:15:21.523Z,74.22
2023-02-14T16:18:20.983Z,72.30
2023-02-14T16:21:16.917Z,76.60
2023-02-14T16:24:12.700Z,70.25
2023-02-14T16:27:01.580Z,71.85
2023-02-14T16:29:48.710Z,71.45
2023-02-14T16:32:38.129Z,67.72
2023-02-14T16:35:25.997Z,68.17
2023-02-14T16:38:16.365Z,72.90
2023-02-14T16:41:04.372Z,70.97
2023-02-14T16:43:52.010Z,70.12
2023-02-14T16:46:39.211Z,74.45
2023-02-14T16:49:26.958Z,73.33
2023-02-14T16:52:23.889Z,71.95
2023-02-14T16:55:17.131Z,68.67
2023-02-14T16:58:04.405Z,75.10
2023-02-14T17:00:51.588Z,69.72
2023-02-14T17:03:40.239Z,71.45
2023-02-14T17:06:32.324Z,75.25
2023-02-14T17:09:24.268Z,73.57
2023-02-14T17:12:16.437Z,81.55
2023-02-14T17:15:06.869Z,79.70
2023-02-14T17:17:59.889Z,72.60
2023-02-14T17:20:48.048Z,74.85
2023-02-14T17:23:35.257Z,66.50
2023-02-14T17:26:22.816Z,68.97
2023-02-14T17:29:10.305Z,67.78
2023-02-14T17:31:57.845Z,77.72
2023-02-14T17:34:45.655Z,74.00
2023-02-14T17:37:34.298Z,78.87
2023-02-14T17:40:21.632Z,74.00
2023-02-14T17:43:08.720Z,71.10
2023-02-14T17:45:56.551Z,69.40
2023-02-14T17:48:45.543Z,72.22
2023-02-14T17:51:32.836Z,84.50
2023-02-14T17:54:19.942Z,72.58
2023-02-14T17:57:07.064Z,74.67
2023-02-14T17:59:54.540Z,70.28
2023-02-14T18:02:41.843Z,75.30
2023-02-14T18:05:29.358Z,77.05
2023-02-14T18:08:16.766Z,73.57
2023-02-14T18:11:12.402Z,74.12
2023-02-14T18:14:01.491Z,76.90
2023-02-14T18:16:49.367Z,59.65
2023-02-14T18:19:36.763Z,69.05
2023-02-14T18:22:24.866Z,68.00
2023-02-14T18:25:12.377Z,78.47
2023-02-14T18:28:00.085Z,64.42
2023-02-14T18:30:47.275Z,66.28
2023-02-14T18:33:35.440Z,80.60
2023-02-14T18:36:26.361Z,76.75
2023-02-14T18:39:13.679Z,69.37
2023-02-14T18:42:01.304Z,74.55
2023-02-14T18:44:48.674Z,80.80
2023-02-14T18:47:35.921Z,75.83
2023-02-14T18:50:23.233Z,70.35
2023-02-14T18:53:10.666Z,80.38
2023-02-14T18:55:57.834Z,73.30
2023-02-14T18:58:48.068Z,69.60
2023-02-14T19:01:39.406Z,71.12
2023-02-14T19:04:26.915Z,71.28
2023-02-14T19:07:14.347Z,69.82
2023-02-14T19:10:02.059Z,76.07
2023-02-14T19:12:49.697Z,66.50
2023-02-14T19:15:38.318Z,64.58
2023-02-14T19:18:26.065Z,72.03
2023-02-14T19:21:15.367Z,79.65
2023-02-14T19:24:06.305Z,69.20
2023-02-14T19:26:56.027Z,68.95
2023-02-14T19:29:43.893Z,70.10
2023-02-14T19:32:31.349Z,78.60
2023-02-14T19:35:18.780Z,67.30
2023-02-14T19:38:06.240Z,74.80
2023-02-14T19:40:53.804Z,72.53
2023-02-14T19:43:41.175Z,64.15
2023-02-14T19:46:30.112Z,66.62
2023-02-14T19:49:20.275Z,69.55
2023-02-14T19:52:17.219Z,72.87
2023-02-14T19:54:57.409Z,71.50
2023-02-14T19:57:44.576Z,75.45
2023-02-14T20:00:31.783Z,69.53
2023-02-14T20:03:19.406Z,71.67
2023-02-14T20:06:07.423Z,81.00
2023-02-14T20:08:55.069Z,72.75
2023-02-14T20:12:01.812Z,73.22
2023-02-14T20:14:51.941Z,72.37
2023-02-14T20:17:39.902Z,72.27
2023-02-14T20:20:27.195Z,62.25
2023-02-14T20:23:14.705Z,77.55
2023-02-14T20:26:03.844Z,56.92
2023-02-14T20:28:53.183Z,63.35
2023-02-14T20:31:44.267Z,61.75
2023-02-14T20:34:31.378Z,62.33
2023-02-14T20:37:19.186Z,61.00
2023-02-14T20:40:09.078Z,58.95
2023-02-14T20:42:56.464Z,60.08
2023-02-14T20:45:44.105Z,60.55
2023-02-14T20:48:31.982Z,64.27
2023-02-14T20:51:22.011Z,60.83
2023-02-14T20:54:09.347Z,56.88
2023-02-14T20:56:57.735Z,58.95
2023-02-14T20:59:46.331Z,60.80
2023-02-14T21:02:33.966Z,60.43
2023-02-14T21:05:21.631Z,64.00
2023-02-14T21:08:08.713Z,64.58
2023-02-14T21:10:56.317Z,53.15
2023-02-14T21:13:43.772Z,57.70
2023-02-14T21:16:31.524Z,63.17
2023-02-14T21:19:19.443Z,56.02
2023-02-14T21:22:06.784Z,59.03
2023-02-14T21:24:54.041Z,54.50
2023-02-14T21:27:42.393Z,62.93
2023-02-14T21:30:31.545Z,60.55
2023-02-14T21:33:18.870Z,65.40
2023-02-14T21:36:10.561Z,67.72
2023-02-14T21:38:59.320Z,67.37
2023-02-14T21:41:46.665Z,82.42
2023-02-14T21:44:52.226Z,77.70
2023-02-14T21:47:40.021Z,80.97
2023-02-14T21:50:30.316Z,81.30
2023-02-14T21:53:18.290Z,83.27
2023-02-14T21:56:09.844Z,95.55
2023-02-14T21:58:57.767Z,99.03
2023-02-14T22:01:44.901Z,89.35
2023-02-14T22:04:32.409Z,93.27
2023-02-14T22:07:19.607Z,87.40
2023-02-14T22:10:07.388Z,98.97
2023-02-14T22:12:54.578Z,106.50
2023-02-14T22:15:42.063Z,90.80
2023-02-14T22:18:30.177Z,94.87
2023-02-14T22:21:20.792Z,107.25
2023-02-14T22:24:08.437Z,106.20
2023-02-14T22:26:55.988Z,102.82
2023-02-14T22:29:43.672Z,91.78
2023-02-14T22:32:31.019Z,104.50
2023-02-14T22:35:18.549Z,100.55
2023-02-14T22:38:05.786Z,111.45
2023-02-14T22:40:53.281Z,124.90
2023-02-14T22:43:41.808Z,120.13
2023-02-14T22:46:29.706Z,101.30
2023-02-14T22:49:17.416Z,109.03
2023-02-14T22:52:05.024Z,95.80
2023-02-14T22:54:54.070Z,99.00
2023-02-14T22:57:41.553Z,97.15
2023-02-14T23:00:29.121Z,112.97
2023-02-14T23:03:16.317Z,124.75
2023-02-14T23:06:03.817Z,118.57
2023-02-14T23:08:50.977Z,106.65
2023-02-14T23:11:39.938Z,135.00
2023-02-14T23:14:45.305Z,121.25
2023-02-14T23:17:50.939Z,125.65
2023-02-14T23:20:56.008Z,112.65
2023-02-14T23:23:43.503Z,114.90
2023-02-14T23:26:30.743Z,114.17
2023-02-14T23:29:18.107Z,112.62
2023-02-14T23:32:07.517Z,112.60
2023-02-14T23:34:55.176Z,115.08
2023-02-14T23:37:42.571Z,104.15
2023-02-14T23:40:29.918Z,107.55
2023-02-14T23:43:17.067Z,98.87
2023-02-14T23:46:04.742Z,91.20
2023-02-14T23:48:52.054Z,94.60
2023-02-14T23:51:39.897Z,108.52
2023-02-14T23:54:27.249Z,102.17
2023-02-14T23:57:14.587Z,121.33
